Time;durP1;ratioP1;P1;durP2;ratioP2;P2;SDS_P1;SDS_P2;PMS_P1;PMS_P2;Temp;Humidity;BMP_temperature;BMP_pressure;BME280_temperature;BME280_humidity;BME280_pressure;Samples;Min_cycle;Max_cycle;Signal;HPM_P1;HPM_P2
2022/06/15 00:00:13;;;;;;;3.13;2.30;;;16.90;71.00;;;;;;4998235;28;20122;-84
2022/06/15 00:02:39;;;;;;;4.53;2.40;;;16.90;71.50;;;;;;4999765;28;20416;-84
2022/06/15 00:05:16;;;;;;;3.70;2.63;;;16.80;71.80;;;;;;5016095;28;20665;-85
2022/06/15 00:07:42;;;;;;;6.55;2.60;;;16.80;72.10;;;;;;5002977;28;20036;-84
2022/06/15 00:10:08;;;;;;;5.28;2.92;;;16.80;73.20;;;;;;5019827;28;20434;-86
2022/06/15 00:12:35;;;;;;;7.20;2.95;;;16.70;74.30;;;;;;5004012;28;20557;-85
2022/06/15 00:15:01;;;;;;;5.68;3.50;;;16.60;75.00;;;;;;5018844;28;20033;-84
2022/06/15 00:17:33;;;;;;;7.43;3.05;;;16.50;76.40;;;;;;5003117;28;20034;-84
2022/06/15 00:19:59;;;;;;;4.40;2.92;;;16.40;77.90;;;;;;5004502;28;20032;-85
2022/06/15 00:22:24;;;;;;;8.82;3.33;;;16.20;79.30;;;;;;5019549;28;20041;-85
2022/06/15 00:24:50;;;;;;;7.22;2.90;;;16.10;79.50;;;;;;5036947;28;20121;-85
2022/06/15 00:27:16;;;;;;;9.27;3.25;;;15.90;81.20;;;;;;5019160;28;20120;-86
2022/06/15 00:29:50;;;;;;;7.95;3.35;;;15.80;82.50;;;;;;5003963;28;20045;-85
2022/06/15 00:32:16;;;;;;;6.90;3.40;;;15.60;83.60;;;;;;5019224;28;20037;-87
2022/06/15 00:34:42;;;;;;;6.57;3.13;;;15.50;86.00;;;;;;5020024;28;20025;-85
2022/06/15 00:37:08;;;;;;;6.70;3.63;;;15.50;86.40;;;;;;5003961;28;20083;-86
2022/06/15 00:39:34;;;;;;;5.60;3.50;;;15.40;87.70;;;;;;5037502;28;20422;-85
2022/06/15 00:42:11;;;;;;;5.97;3.78;;;15.40;89.00;;;;;;5020259;28;20033;-85
2022/06/15 00:44:39;;;;;;;7.32;3.40;;;15.20;90.10;;;;;;5020705;28;20186;-84
2022/06/15 00:47:20;;;;;;;10.13;3.88;;;15.10;90.80;;;;;;5021054;28;20026;-85
2022/06/15 00:50:20;;;;;;;7.75;4.13;;;15.00;91.40;;;;;;5003671;28;20030;-86
2022/06/15 00:53:00;;;;;;;13.77;3.58;;;14.90;91.90;;;;;;5003589;28;20041;-85
2022/06/15 00:55:38;;;;;;;6.47;4.05;;;14.80;92.90;;;;;;5020258;28;20445;-85
2022/06/15 00:58:08;;;;;;;7.28;3.75;;;14.70;93.80;;;;;;5004278;28;20037;-85
2022/06/15 01:00:35;;;;;;;9.65;3.47;;;14.60;94.40;;;;;;5004580;28;20057;-87
2022/06/15 01:03:00;;;;;;;8.30;3.60;;;14.60;95.50;;;;;;5021511;28;20034;-85
2022/06/15 01:05:38;;;;;;;6.32;3.75;;;14.50;95.90;;;;;;5021599;28;20049;-86
2022/06/15 01:08:19;;;;;;;9.90;4.10;;;14.50;96.80;;;;;;5004281;28;20128;-86
2022/06/15 01:11:21;;;;;;;6.95;3.72;;;14.40;97.90;;;;;;5037849;28;20798;-86
2022/06/15 01:14:12;;;;;;;8.35;4.07;;;14.40;98.90;;;;;;5021069;28;20687;-84
2022/06/15 01:17:06;;;;;;;8.25;3.70;;;14.30;99.90;;;;;;5004036;28;20037;-87
2022/06/15 01:20:03;;;;;;;7.07;4.38;;;14.30;99.90;;;;;;5004495;28;20586;-86
2022/06/15 01:23:11;;;;;;;9.15;4.60;;;14.20;99.90;;;;;;5021306;28;20043;-85
2022/06/15 01:26:07;;;;;;;9.05;4.43;;;14.20;99.90;;;;;;5004140;28;20031;-86
2022/06/15 01:28:46;;;;;;;5.45;3.92;;;14.30;99.90;;;;;;4987543;28;20041;-85
2022/06/15 01:31:56;;;;;;;12.90;4.65;;;14.20;99.90;;;;;;5004504;28;20041;-85
2022/06/15 01:34:27;;;;;;;9.85;4.20;;;14.10;99.90;;;;;;5004138;28;20033;-86
2022/06/15 01:37:14;;;;;;;7.00;4.05;;;14.00;99.90;;;;;;5004145;28;20037;-85
2022/06/15 01:39:58;;;;;;;8.77;4.20;;;14.00;99.90;;;;;;5020488;28;20037;-85
2022/06/15 01:42:36;;;;;;;8.00;4.50;;;13.90;99.90;;;;;;5004177;28;20042;-86
2022/06/15 01:45:09;;;;;;;9.55;4.43;;;13.90;99.90;;;;;;5019680;28;20271;-84
2022/06/15 01:47:45;;;;;;;7.95;4.65;;;13.90;99.90;;;;;;5004415;28;20033;-85
2022/06/15 01:50:18;;;;;;;6.03;4.25;;;13.90;99.90;;;;;;5020608;28;20056;-85
2022/06/15 01:53:26;;;;;;;15.02;5.25;;;13.90;99.90;;;;;;5004038;28;20120;-86
2022/06/15 01:56:08;;;;;;;6.07;4.53;;;13.80;99.90;;;;;;5014196;28;20026;-87
2022/06/15 01:58:36;;;;;;;8.27;4.65;;;13.70;99.90;;;;;;5007484;28;20565;-87
2022/06/15 02:01:17;;;;;;;8.52;4.28;;;13.60;99.90;;;;;;5005737;28;20037;-85
2022/06/15 02:03:48;;;;;;;;;;;13.50;99.90;;;;;;5007255;28;20037;-86
2022/06/15 02:06:40;;;;;;;6.97;4.85;;;13.40;99.90;;;;;;5006803;28;19912;-86
2022/06/15 02:09:32;;;;;;;12.43;5.03;;;13.40;99.90;;;;;;5023087;28;20811;-86
2022/06/15 02:12:02;;;;;;;7.72;5.18;;;13.30;99.90;;;;;;5006629;28;20040;-87
2022/06/15 02:14:50;;;;;;;7.50;4.45;;;13.20;99.90;;;;;;5006120;28;20029;-87
2022/06/15 02:17:23;;;;;;;8.73;5.07;;;13.20;99.90;;;;;;5005705;28;20041;-85
2022/06/15 02:19:59;;;;;;;10.52;5.00;;;13.20;99.90;;;;;;5005393;28;20144;-84
2022/06/15 02:22:30;;;;;;;11.52;5.05;;;13.20;99.90;;;;;;5004308;28;20091;-86
2022/06/15 02:24:58;;;;;;;6.63;4.47;;;13.20;99.90;;;;;;5004746;28;20060;-85
2022/06/15 02:27:26;;;;;;;10.10;5.00;;;13.10;99.90;;;;;;5020402;28;20057;-86
2022/06/15 02:30:05;;;;;;;8.13;5.20;;;13.10;99.90;;;;;;5004444;28;20026;-85
2022/06/15 02:32:36;;;;;;;10.40;4.55;;;13.10;99.90;;;;;;5021336;28;20105;-86
2022/06/15 02:35:03;;;;;;;11.48;5.00;;;13.00;99.90;;;;;;5021445;28;20041;-85
2022/06/15 02:37:35;;;;;;;13.57;5.15;;;13.00;99.90;;;;;;5004598;28;20490;-87
2022/06/15 02:40:02;;;;;;;9.23;4.47;;;12.90;99.90;;;;;;5005604;28;20044;-86
2022/06/15 02:42:35;;;;;;;10.15;5.38;;;12.90;99.90;;;;;;5005736;28;20045;-86
2022/06/15 02:45:14;;;;;;;7.38;4.75;;;12.90;99.90;;;;;;5005761;28;20116;-85
2022/06/15 02:47:44;;;;;;;10.00;5.05;;;12.90;99.90;;;;;;5004652;28;20068;-86
2022/06/15 02:50:13;;;;;;;9.15;5.28;;;12.90;99.90;;;;;;5020815;28;20542;-86
2022/06/15 02:52:47;;;;;;;8.63;4.88;;;12.90;99.90;;;;;;5020428;28;20080;-85
2022/06/15 02:55:16;;;;;;;8.68;5.00;;;13.00;99.90;;;;;;5004616;28;20034;-86
2022/06/15 02:57:53;;;;;;;13.55;5.18;;;13.10;99.90;;;;;;5004642;28;20492;-86
2022/06/15 03:00:26;;;;;;;8.55;6.00;;;13.20;99.90;;;;;;5021944;28;20277;-86
2022/06/15 03:02:51;;;;;;;9.65;6.00;;;13.40;99.90;;;;;;5013674;28;20042;-86
2022/06/15 03:05:17;;;;;;;8.05;5.25;;;13.50;99.90;;;;;;5015490;28;20033;-84
2022/06/15 03:07:44;;;;;;;6.38;4.80;;;13.60;99.90;;;;;;4999174;28;20029;-85
2022/06/15 03:10:13;;;;;;;10.48;4.85;;;13.70;99.90;;;;;;5016028;28;20164;-84
2022/06/15 03:12:45;;;;;;;10.90;5.43;;;13.70;99.90;;;;;;5016276;28;20080;-87
2022/06/15 03:15:11;;;;;;;11.15;6.15;;;13.70;99.90;;;;;;5014672;28;20033;-85
2022/06/15 03:17:37;;;;;;;7.32;4.38;;;13.60;99.90;;;;;;4990567;28;20159;-90
2022/06/15 03:20:07;;;;;;;12.30;4.88;;;13.60;99.90;;;;;;5001561;28;20690;-83
2022/06/15 03:22:34;;;;;;;10.50;4.82;;;13.50;99.90;;;;;;4998192;28;20079;-84
2022/06/15 03:25:04;;;;;;;9.68;5.20;;;13.40;99.90;;;;;;4999130;28;20022;-83
2022/06/15 03:27:31;;;;;;;7.47;4.88;;;13.30;99.90;;;;;;4998898;28;20029;-84
2022/06/15 03:30:00;;;;;;;7.07;4.32;;;13.30;99.90;;;;;;4999228;28;20081;-82
2022/06/15 03:32:33;;;;;;;9.38;4.63;;;13.20;99.90;;;;;;5000333;28;20040;-85
2022/06/15 03:35:04;;;;;;;9.68;4.80;;;13.20;99.90;;;;;;5000034;28;20037;-83
2022/06/15 03:37:32;;;;;;;12.25;6.22;;;13.20;99.90;;;;;;5000886;28;20040;-83
2022/06/15 03:40:16;;;;;;;8.18;4.65;;;13.20;99.90;;;;;;5019093;28;20037;-83
2022/06/15 03:42:45;;;;;;;7.75;4.82;;;13.30;99.90;;;;;;5005920;28;20065;-83
2022/06/15 03:45:13;;;;;;;8.00;5.00;;;13.30;99.90;;;;;;5022464;28;20056;-83
2022/06/15 03:47:39;;;;;;;12.40;4.88;;;13.30;99.90;;;;;;5025567;28;20029;-82
2022/06/15 03:50:08;;;;;;;11.20;4.82;;;13.40;99.90;;;;;;5032674;28;20025;-83
2022/06/15 03:52:34;;;;;;;7.82;4.47;;;13.40;99.90;;;;;;5013464;28;20026;-84
2022/06/15 03:55:00;;;;;;;7.07;4.25;;;13.60;99.90;;;;;;5046257;28;20025;-84
2022/06/15 03:57:26;;;;;;;7.68;3.95;;;13.60;99.90;;;;;;5028525;28;20034;-84
2022/06/15 03:59:53;;;;;;;7.85;5.25;;;13.70;99.90;;;;;;5019238;28;20029;-85
2022/06/15 04:02:45;;;;;;;;;;;13.70;99.90;;;;;;5039012;28;20057;-82
2022/06/15 04:05:23;;;;;;;14.02;5.00;;;13.80;99.90;;;;;;5000372;28;20346;-82
2022/06/15 04:10:36;;;;;;;6.22;4.72;;;13.90;99.90;;;;;;5016178;28;20052;-83
2022/06/15 04:13:07;;;;;;;7.35;4.72;;;13.90;99.90;;;;;;4999721;28;20150;-83
2022/06/15 04:15:34;;;;;;;8.32;4.80;;;13.90;99.90;;;;;;5001190;28;20048;-85
2022/06/15 04:18:00;;;;;;;7.35;4.60;;;14.00;99.90;;;;;;5000695;28;20033;-83
2022/06/15 04:20:52;;;;;;;10.13;5.40;;;14.00;99.90;;;;;;5037284;28;20064;-83
2022/06/15 04:23:22;;;;;;;9.30;4.70;;;14.10;99.90;;;;;;5007299;28;20116;-83
2022/06/15 04:25:51;;;;;;;10.32;5.35;;;14.10;99.90;;;;;;5007969;28;20037;-85
2022/06/15 04:28:20;;;;;;;10.88;5.25;;;14.20;99.90;;;;;;5023625;28;20033;-84
2022/06/15 04:30:47;;;;;;;11.88;5.00;;;14.30;99.90;;;;;;5007755;28;20078;-84
2022/06/15 04:33:15;;;;;;;7.45;4.70;;;14.50;99.90;;;;;;5007828;28;20633;-84
2022/06/15 04:35:42;;;;;;;7.00;4.30;;;14.60;99.90;;;;;;5007757;28;20115;-84
2022/06/15 04:38:13;;;;;;;10.90;4.90;;;14.70;99.90;;;;;;5024528;28;20107;-84
2022/06/15 04:40:52;;;;;;;9.48;4.78;;;14.80;99.90;;;;;;5009968;28;20088;-84
2022/06/15 04:43:19;;;;;;;10.13;4.82;;;14.90;99.90;;;;;;5023657;28;20639;-83
2022/06/15 04:45:45;;;;;;;6.65;4.13;;;15.00;99.90;;;;;;5023807;28;20034;-82
2022/06/15 04:48:17;;;;;;;9.95;4.78;;;15.20;99.90;;;;;;5008409;28;20344;-83
2022/06/15 04:50:44;;;;;;;8.50;4.75;;;15.30;99.90;;;;;;5023953;28;20029;-84
2022/06/15 04:53:10;;;;;;;6.35;4.57;;;15.40;99.90;;;;;;5005793;28;20072;-83
2022/06/15 04:55:36;;;;;;;9.50;4.72;;;15.50;99.90;;;;;;5022712;28;20044;-83
2022/06/15 04:58:04;;;;;;;13.15;4.65;;;15.60;99.90;;;;;;5005429;28;20033;-84
2022/06/15 05:00:40;;;;;;;10.13;4.85;;;15.80;99.90;;;;;;5004955;28;20030;-83
2022/06/15 05:03:07;;;;;;;12.95;4.75;;;15.80;99.90;;;;;;5004648;28;20520;-85
2022/06/15 05:05:33;;;;;;;10.68;4.70;;;16.00;99.90;;;;;;5039127;28;20179;-85
2022/06/15 05:08:03;;;;;;;6.28;4.18;;;16.10;99.90;;;;;;5021602;28;20029;-85
2022/06/15 05:10:29;;;;;;;9.05;4.55;;;16.20;99.90;;;;;;5021559;28;20044;-84
2022/06/15 05:12:55;;;;;;;8.02;5.10;;;16.20;99.90;;;;;;5021922;28;20143;-83
2022/06/15 05:15:24;;;;;;;10.40;4.45;;;16.20;99.90;;;;;;5006768;28;20072;-84
2022/06/15 05:17:55;;;;;;;6.97;4.07;;;16.30;99.90;;;;;;5023231;28;20040;-84
2022/06/15 05:20:20;;;;;;;7.40;4.40;;;16.30;99.90;;;;;;5029203;28;20034;-87
2022/06/15 05:22:53;;;;;;;7.80;4.65;;;16.40;99.90;;;;;;5007787;28;20040;-85
2022/06/15 05:25:22;;;;;;;10.15;4.72;;;16.40;99.90;;;;;;5023059;28;20536;-85
2022/06/15 05:27:48;;;;;;;12.98;4.60;;;16.60;99.90;;;;;;5023275;28;20032;-84
2022/06/15 05:30:13;;;;;;;6.45;3.88;;;16.70;99.90;;;;;;5023205;28;20030;-85
2022/06/15 05:32:40;;;;;;;11.95;4.60;;;16.80;99.90;;;;;;5006438;28;20482;-84
2022/06/15 05:35:07;;;;;;;10.90;4.50;;;16.90;99.90;;;;;;5005286;28;20540;-85
2022/06/15 05:37:33;;;;;;;14.50;6.70;;;16.90;99.90;;;;;;5006381;28;20029;-85
2022/06/15 05:40:00;;;;;;;8.48;4.30;;;16.90;99.90;;;;;;5006369;28;20037;-84
2022/06/15 05:42:28;;;;;;;6.75;3.85;;;17.10;99.90;;;;;;5005417;28;20037;-86
2022/06/15 05:45:02;;;;;;;8.15;4.78;;;17.20;99.90;;;;;;5022468;28;20441;-84
2022/06/15 05:47:30;;;;;;;12.32;4.68;;;17.20;99.90;;;;;;5006153;28;20052;-85
2022/06/15 05:50:16;;;;;;;9.23;5.18;;;17.30;99.90;;;;;;5007896;28;20096;-85
2022/06/15 05:52:54;;;;;;;10.05;4.40;;;17.40;99.90;;;;;;5006680;28;20030;-84
2022/06/15 05:55:20;;;;;;;8.07;4.38;;;17.50;99.90;;;;;;5020965;28;20029;-82
2022/06/15 05:57:46;;;;;;;8.38;4.40;;;17.50;99.90;;;;;;5004239;28;20106;-84
2022/06/15 06:00:13;;;;;;;9.90;4.25;;;17.60;99.90;;;;;;5038461;28;20037;-84
2022/06/15 06:02:42;;;;;;;12.50;4.43;;;17.70;99.90;;;;;;5004501;28;20461;-83
2022/06/15 06:05:08;;;;;;;10.23;4.80;;;17.80;99.90;;;;;;5020139;28;20037;-84
2022/06/15 06:07:34;;;;;;;13.27;4.90;;;17.90;99.90;;;;;;5020200;28;20030;-82
2022/06/15 06:09:59;;;;;;;7.00;4.25;;;17.90;99.90;;;;;;5020593;28;20088;-84
2022/06/15 06:12:25;;;;;;;7.40;4.05;;;18.00;99.90;;;;;;5038715;28;20037;-84
2022/06/15 06:14:53;;;;;;;12.25;4.55;;;18.00;99.90;;;;;;5038465;28;20021;-85
2022/06/15 06:17:19;;;;;;;9.05;4.63;;;18.10;99.90;;;;;;5004017;28;20026;-85
2022/06/15 06:19:45;;;;;;;15.60;4.78;;;18.20;99.90;;;;;;5014635;28;20048;-85
2022/06/15 06:22:11;;;;;;;7.80;4.82;;;18.20;99.90;;;;;;5039289;28;20033;-85
2022/06/15 06:24:37;;;;;;;10.70;5.13;;;18.30;99.90;;;;;;5015577;28;20124;-85
2022/06/15 06:27:05;;;;;;;8.85;4.72;;;18.40;99.90;;;;;;5017158;28;20033;-82
2022/06/15 06:29:31;;;;;;;11.15;4.82;;;18.50;99.90;;;;;;5015764;28;20029;-83
2022/06/15 06:31:59;;;;;;;8.13;4.75;;;18.50;99.90;;;;;;5015880;28;20578;-82
2022/06/15 06:34:26;;;;;;;11.23;5.00;;;18.60;99.90;;;;;;4999609;28;20859;-82
2022/06/15 06:36:52;;;;;;;7.85;4.38;;;18.70;99.90;;;;;;5015589;28;20120;-83
2022/06/15 06:39:25;;;;;;;9.18;4.75;;;18.70;99.90;;;;;;5016381;28;20517;-83
2022/06/15 06:41:54;;;;;;;13.90;4.50;;;18.80;99.90;;;;;;5034961;28;20025;-84
2022/06/15 06:44:20;;;;;;;9.27;4.43;;;18.90;99.90;;;;;;5016938;28;20502;-81
2022/06/15 06:46:47;;;;;;;14.38;5.00;;;19.00;99.90;;;;;;5015989;28;20037;-81
2022/06/15 06:49:14;;;;;;;9.10;4.35;;;19.10;99.90;;;;;;5033621;28;20099;-81
2022/06/15 06:51:41;;;;;;;9.20;4.88;;;19.20;99.90;;;;;;5001576;28;20501;-83
2022/06/15 06:54:12;;;;;;;6.10;4.13;;;19.30;99.90;;;;;;5017985;28;20041;-83
2022/06/15 06:56:37;;;;;;;7.68;4.38;;;19.40;99.90;;;;;;5036745;28;20045;-82
2022/06/15 06:59:09;;;;;;;10.32;4.20;;;19.50;99.90;;;;;;5036521;28;20129;-82
2022/06/15 07:01:36;;;;;;;10.10;4.95;;;19.60;99.90;;;;;;5018664;28;20645;-82
2022/06/15 07:04:02;;;;;;;7.30;4.10;;;19.60;99.90;;;;;;5035648;28;20079;-83
2022/06/15 07:06:28;;;;;;;6.95;4.28;;;19.70;99.90;;;;;;5017818;28;20025;-84
2022/06/15 07:08:57;;;;;;;13.15;4.40;;;19.90;99.90;;;;;;5035594;28;20049;-83
2022/06/15 07:11:23;;;;;;;12.52;4.70;;;20.60;99.90;;;;;;5035963;28;20026;-85
2022/06/15 07:13:49;;;;;;;9.93;4.05;;;21.90;99.90;;;;;;5036466;28;20037;-82
2022/06/15 07:16:17;;;;;;;8.43;4.68;;;23.50;99.90;;;;;;5018625;28;20093;-83
2022/06/15 07:18:44;;;;;;;6.65;3.75;;;24.80;99.90;;;;;;5037267;28;20485;-83
2022/06/15 07:21:14;;;;;;;7.43;3.80;;;25.50;97.30;;;;;;5002319;28;20136;-82
2022/06/15 07:23:42;;;;;;;5.57;3.40;;;26.10;94.50;;;;;;5018407;28;20040;-82
2022/06/15 07:26:13;;;;;;;5.55;3.78;;;26.20;92.40;;;;;;5036728;28;20026;-84
2022/06/15 07:28:39;;;;;;;6.30;3.25;;;26.90;92.10;;;;;;5021029;28;20076;-83
2022/06/15 07:31:06;;;;;;;12.27;4.18;;;27.80;89.00;;;;;;5037233;28;20097;-85
2022/06/15 07:33:33;;;;;;;7.85;3.35;;;28.30;84.20;;;;;;5018263;28;20033;-84
2022/06/15 07:35:59;;;;;;;7.45;3.88;;;27.90;82.70;;;;;;5017815;28;20044;-85
2022/06/15 07:38:26;;;;;;;7.65;3.80;;;27.70;80.80;;;;;;5020538;28;20092;-83
2022/06/15 07:40:52;;;;;;;13.60;4.45;;;27.50;82.20;;;;;;5019593;28;20037;-83
2022/06/15 07:43:18;;;;;;;7.82;3.63;;;26.60;83.80;;;;;;5002553;28;20037;-83
2022/06/15 07:45:45;;;;;;;9.70;4.45;;;24.80;85.90;;;;;;5020157;28;20040;-84
2022/06/15 07:50:56;;;;;;;9.82;4.05;;;22.60;91.60;;;;;;5019638;28;20251;-83
2022/06/15 07:53:22;;;;;;;18.73;6.60;;;22.30;92.90;;;;;;5019901;28;20185;-84
2022/06/15 07:55:48;;;;;;;6.97;3.80;;;22.10;92.90;;;;;;5002758;28;20115;-85
2022/06/15 07:58:15;;;;;;;9.32;3.92;;;22.10;95.10;;;;;;5038712;28;20086;-84
2022/06/15 08:00:44;;;;;;;5.90;3.85;;;23.30;93.40;;;;;;5004170;28;20064;-85
2022/06/15 08:03:10;;;;;;;6.32;3.30;;;24.90;91.70;;;;;;5024292;28;20037;-84
2022/06/15 08:05:41;;;;;;;10.07;3.78;;;26.90;89.40;;;;;;5039611;28;20087;-86
2022/06/15 08:08:10;;;;;;;5.68;3.25;;;27.50;83.00;;;;;;5021284;28;20030;-85
2022/06/15 08:10:36;;;;;;;5.00;3.30;;;27.70;79.70;;;;;;5037648;28;20025;-84
2022/06/15 08:13:03;;;;;;;6.93;3.20;;;28.00;80.20;;;;;;5005230;28;20136;-85
2022/06/15 08:15:29;;;;;;;5.93;3.17;;;29.60;77.50;;;;;;5020745;28;20045;-85
2022/06/15 08:18:03;;;;;;;13.70;4.10;;;30.60;72.80;;;;;;5020337;28;20034;-85
2022/06/15 08:20:41;;;;;;;9.73;3.30;;;31.40;69.10;;;;;;5034140;28;20037;-86
2022/06/15 08:23:13;;;;;;;4.93;3.35;;;31.90;65.40;;;;;;5038136;28;20246;-85
2022/06/15 08:25:43;;;;;;;5.53;3.13;;;30.50;66.00;;;;;;5020481;28;20038;-84
2022/06/15 08:28:11;;;;;;;5.47;3.20;;;30.30;64.90;;;;;;5040009;28;20071;-84
2022/06/15 08:30:38;;;;;;;5.68;3.50;;;30.70;63.10;;;;;;5023085;28;20060;-85
2022/06/15 08:33:06;;;;;;;6.03;3.28;;;31.20;62.00;;;;;;5041419;28;20034;-84
2022/06/15 08:35:36;;;;;;;10.60;3.10;;;31.70;61.00;;;;;;5006328;28;20033;-84
2022/06/15 08:38:06;;;;;;;6.88;3.15;;;32.00;60.50;;;;;;5023935;28;20044;-86
2022/06/15 08:40:41;;;;;;;7.93;3.17;;;32.20;59.40;;;;;;5022728;28;20036;-85
2022/06/15 08:43:41;;;;;;;4.97;2.90;;;32.00;57.90;;;;;;5005772;28;20125;-85
2022/06/15 08:46:19;;;;;;;4.13;2.70;;;31.10;58.40;;;;;;5006074;28;20411;-84
2022/06/15 08:48:52;;;;;;;11.48;3.42;;;31.00;58.20;;;;;;5023156;28;20091;-85
2022/06/15 08:51:30;;;;;;;6.32;2.92;;;31.10;58.30;;;;;;5039455;28;20033;-84
2022/06/15 08:54:07;;;;;;;9.32;3.60;;;30.80;57.40;;;;;;5005608;28;20518;-86
2022/06/15 08:56:52;;;;;;;6.07;2.97;;;31.40;59.10;;;;;;5005100;28;20057;-86
2022/06/15 08:59:43;;;;;;;5.38;3.28;;;31.30;58.30;;;;;;5005459;28;20535;-84
2022/06/15 09:02:31;;;;;;;5.40;3.05;;;30.40;58.70;;;;;;5028174;28;20036;-85
2022/06/15 09:05:18;;;;;;;8.63;3.85;;;30.50;59.10;;;;;;5010630;28;20071;-85
2022/06/15 09:07:59;;;;;;;7.85;3.45;;;30.50;59.70;;;;;;5027888;28;20051;-86
2022/06/15 09:10:51;;;;;;;7.90;2.90;;;31.20;58.20;;;;;;5010142;28;20068;-85
2022/06/15 09:13:54;;;;;;;5.18;2.88;;;31.30;57.10;;;;;;5044531;28;20030;-85
2022/06/15 09:16:22;;;;;;;5.07;3.30;;;31.30;58.10;;;;;;5006764;28;20049;-85
2022/06/15 09:19:08;;;;;;;5.25;3.28;;;31.70;57.40;;;;;;5025085;28;20030;-85
2022/06/15 09:21:52;;;;;;;10.75;4.07;;;30.80;58.00;;;;;;5024338;28;20060;-85
2022/06/15 09:24:49;;;;;;;4.90;3.00;;;30.50;58.20;;;;;;5022747;28;20038;-84
2022/06/15 09:27:28;;;;;;;6.18;3.00;;;30.90;57.50;;;;;;5041018;28;20033;-84
2022/06/15 09:30:04;;;;;;;8.55;3.40;;;31.80;57.00;;;;;;5024983;28;20048;-85
2022/06/15 09:32:41;;;;;;;6.03;3.30;;;32.00;55.80;;;;;;5031119;28;20037;-86
2022/06/15 09:35:10;;;;;;;11.07;3.35;;;32.10;56.10;;;;;;5041740;28;20064;-85
2022/06/15 09:37:39;;;;;;;4.78;3.03;;;32.80;55.20;;;;;;5035382;28;20041;-84
2022/06/15 09:40:07;;;;;;;6.10;3.07;;;33.60;55.00;;;;;;5004071;28;20113;-84
2022/06/15 09:43:01;;;;;;;7.03;2.95;;;34.10;54.70;;;;;;5023258;28;20039;-84
2022/06/15 09:45:39;;;;;;;9.95;3.30;;;33.60;54.60;;;;;;5027936;28;20029;-83
2022/06/15 09:48:10;;;;;;;8.57;3.30;;;34.50;53.70;;;;;;5025413;28;20030;-87
2022/06/15 09:50:40;;;;;;;6.28;2.80;;;34.80;52.80;;;;;;5023773;28;20132;-86
2022/06/15 09:53:21;;;;;;;;;;;34.50;51.70;;;;;;5008279;28;20139;-85
2022/06/15 09:55:53;;;;;;;6.15;3.08;;;34.60;52.30;;;;;;5051977;28;19976;-88
2022/06/15 09:58:23;;;;;;;5.93;2.83;;;33.50;52.20;;;;;;5021565;28;20045;-86
2022/06/15 10:00:49;;;;;;;7.25;3.00;;;32.00;53.40;;;;;;5037153;28;20021;-87
2022/06/15 10:03:24;;;;;;;4.68;2.45;;;31.60;54.50;;;;;;5055482;28;20055;-87
2022/06/15 10:05:57;;;;;;;4.43;2.40;;;32.30;54.10;;;;;;5009619;28;20109;-85
2022/06/15 10:08:22;;;;;;;7.38;2.90;;;31.70;52.80;;;;;;5024139;28;20056;-85
2022/06/15 10:10:56;;;;;;;6.40;2.85;;;31.80;52.30;;;;;;5027556;28;20040;-84
2022/06/15 10:13:21;;;;;;;15.25;3.55;;;32.50;52.80;;;;;;5024186;28;20041;-86
2022/06/15 10:15:54;;;;;;;7.22;3.88;;;32.80;52.20;;;;;;5026526;28;20040;-87
2022/06/15 10:18:44;;;;;;;6.72;3.65;;;32.80;52.70;;;;;;5024155;28;20033;-85
2022/06/15 10:21:13;;;;;;;8.20;3.13;;;32.80;52.50;;;;;;5012037;28;20041;-85
2022/06/15 10:24:06;;;;;;;5.78;3.15;;;32.90;52.30;;;;;;5023995;28;20128;-85
2022/06/15 10:26:44;;;;;;;5.18;3.33;;;32.70;50.50;;;;;;5020101;28;20009;-84
2022/06/15 10:29:18;;;;;;;6.13;2.65;;;31.20;53.10;;;;;;5003750;28;20075;-86
2022/06/15 10:32:03;;;;;;;5.32;2.95;;;30.70;51.60;;;;;;5003614;28;20037;-85
2022/06/15 10:34:35;;;;;;;9.75;2.75;;;30.10;52.60;;;;;;5021670;28;20025;-83
2022/06/15 10:37:32;;;;;;;4.97;2.38;;;30.10;54.40;;;;;;5020831;28;20061;-84
2022/06/15 10:40:06;;;;;;;4.10;2.72;;;30.20;51.60;;;;;;5010252;28;20487;-83
2022/06/15 10:42:45;;;;;;;5.03;2.80;;;30.30;53.20;;;;;;5036518;28;20027;-82
2022/06/15 10:45:22;;;;;;;6.13;2.60;;;30.40;54.00;;;;;;5019438;28;20038;-84
2022/06/15 10:47:54;;;;;;;8.40;3.17;;;30.70;54.10;;;;;;5037124;28;20036;-83
2022/06/15 10:50:26;;;;;;;6.10;3.03;;;30.60;52.20;;;;;;5003556;28;20035;-85
2022/06/15 10:52:59;;;;;;;5.05;2.67;;;30.20;52.00;;;;;;5020536;28;20040;-87
2022/06/15 11:04:25;;;;;;;6.10;2.90;;;30.60;54.70;;;;;;5021927;28;20029;-85
2022/06/15 11:06:59;;;;;;;5.15;2.40;;;31.50;54.10;;;;;;5039457;28;20140;-87
2022/06/15 11:09:25;;;;;;;3.95;2.60;;;31.70;53.80;;;;;;5005471;28;20037;-85
2022/06/15 11:11:51;;;;;;;5.13;2.72;;;31.90;52.40;;;;;;5019272;28;20748;-84
2022/06/15 11:14:31;;;;;;;4.72;2.60;;;31.60;53.40;;;;;;5019872;28;20044;-86
2022/06/15 11:20:42;;;;;;;4.82;2.47;;;31.50;52.50;;;;;;5039055;28;20272;-86
2022/06/15 11:23:14;;;;;;;5.15;3.30;;;31.90;55.40;;;;;;5036770;28;20053;-86
2022/06/15 11:29:08;;;;;;;3.45;2.97;;;32.10;52.30;;;;;;5020088;28;20033;-87
2022/06/15 11:31:35;;;;;;;5.03;3.20;;;32.30;52.30;;;;;;5020550;28;20104;-85
2022/06/15 11:34:12;;;;;;;6.75;2.75;;;32.20;52.10;;;;;;5037887;28;20085;-85
2022/06/15 11:36:56;;;;;;;4.80;3.45;;;32.70;52.10;;;;;;5003104;28;20625;-84
2022/06/15 11:39:34;;;;;;;5.00;2.97;;;32.90;51.40;;;;;;5002977;28;20044;-84
2022/06/15 11:42:01;;;;;;;8.20;3.13;;;32.70;51.30;;;;;;5019876;28;20038;-85
2022/06/15 11:44:33;;;;;;;9.57;2.97;;;32.40;51.20;;;;;;5019288;28;20037;-87
2022/06/15 11:47:31;;;;;;;4.30;2.72;;;32.10;52.00;;;;;;5036239;28;20473;-86
2022/06/15 11:50:38;;;;;;;7.40;3.15;;;32.40;52.20;;;;;;5001269;28;20080;-85
2022/06/15 11:53:18;;;;;;;7.30;2.70;;;32.30;51.50;;;;;;5008884;28;20046;-84
2022/06/15 11:55:52;;;;;;;5.55;2.88;;;31.80;51.40;;;;;;5017732;28;20033;-86
2022/06/15 11:58:31;;;;;;;7.35;3.20;;;31.30;53.50;;;;;;5017883;28;20532;-85
2022/06/15 12:01:05;;;;;;;3.42;2.75;;;31.20;52.70;;;;;;5020514;28;20109;-85
2022/06/15 12:04:08;;;;;;;4.63;3.05;;;31.30;53.40;;;;;;5005210;28;20068;-86
2022/06/15 12:06:55;;;;;;;6.00;2.72;;;31.40;53.80;;;;;;5005484;28;20033;-84
2022/06/15 12:09:35;;;;;;;3.50;2.72;;;31.40;51.20;;;;;;5005595;28;20033;-86
2022/06/15 12:12:39;;;;;;;2.90;2.60;;;31.70;54.30;;;;;;5041740;28;20044;-85
2022/06/15 12:15:32;;;;;;;7.82;2.75;;;32.10;52.20;;;;;;5006405;28;20029;-85
2022/06/15 12:18:14;;;;;;;5.78;3.45;;;32.20;51.30;;;;;;5004251;28;20029;-84
2022/06/15 12:21:02;;;;;;;3.25;2.80;;;32.20;52.50;;;;;;5004593;28;20037;-85
2022/06/15 12:23:35;;;;;;;6.82;2.75;;;32.50;51.70;;;;;;5020085;28;20033;-85
2022/06/15 12:26:03;;;;;;;4.55;2.83;;;32.20;50.10;;;;;;5039303;28;20060;-84
2022/06/15 12:28:46;;;;;;;4.85;2.67;;;32.10;50.40;;;;;;5005357;28;20433;-85
2022/06/15 12:31:46;;;;;;;5.63;2.53;;;32.40;50.60;;;;;;5004938;28;20034;-86
2022/06/15 12:34:26;;;;;;;10.88;2.85;;;33.10;50.30;;;;;;4978550;28;20112;-85
2022/06/15 12:37:11;;;;;;;5.63;2.72;;;33.40;48.60;;;;;;5038048;28;20061;-86
2022/06/15 12:39:59;;;;;;;4.28;2.25;;;33.30;49.30;;;;;;5020429;28;20036;-85
2022/06/15 12:42:25;;;;;;;6.57;2.50;;;32.80;49.30;;;;;;5029155;28;20025;-87
2022/06/15 12:45:07;;;;;;;9.82;2.17;;;32.60;47.10;;;;;;5023377;28;20049;-85
2022/06/15 12:47:34;;;;;;;3.80;2.05;;;32.60;46.20;;;;;;5000794;28;20030;-84
2022/06/15 12:50:29;;;;;;;3.22;2.15;;;33.00;47.20;;;;;;5017845;28;20084;-83
2022/06/15 12:53:32;;;;;;;8.63;1.90;;;33.20;46.20;;;;;;4999574;28;20022;-85
2022/06/15 12:56:04;;;;;;;5.13;2.50;;;32.80;43.20;;;;;;4998819;28;20033;-84
2022/06/15 12:58:55;;;;;;;8.20;2.22;;;32.80;42.80;;;;;;5017122;28;20022;-84
2022/06/15 13:01:39;;;;;;;4.00;2.35;;;32.60;46.10;;;;;;5000219;28;20037;-84
2022/06/15 13:04:15;;;;;;;3.22;2.30;;;33.00;46.50;;;;;;5016347;28;20033;-84
2022/06/15 13:06:42;;;;;;;3.13;1.92;;;33.50;45.90;;;;;;5006076;28;20043;-84
2022/06/15 13:09:18;;;;;;;3.47;2.50;;;33.80;44.40;;;;;;5040910;28;20133;-85
2022/06/15 13:12:05;;;;;;;3.42;2.22;;;33.60;46.30;;;;;;5017354;28;20060;-84
2022/06/15 13:14:43;;;;;;;8.32;2.63;;;33.50;47.40;;;;;;5018136;28;20037;-86
2022/06/15 13:17:17;;;;;;;5.35;2.60;;;33.50;46.30;;;;;;5034625;28;20029;-84
2022/06/15 13:20:03;;;;;;;5.55;2.50;;;33.40;47.90;;;;;;5002203;28;20057;-85
2022/06/15 13:22:32;;;;;;;7.03;3.55;;;33.40;47.10;;;;;;5038031;28;20504;-85
2022/06/15 13:25:16;;;;;;;3.42;2.55;;;33.30;46.60;;;;;;5003024;28;20038;-85
2022/06/15 13:28:08;;;;;;;4.97;2.13;;;33.00;46.60;;;;;;5001298;28;20033;-87
2022/06/15 13:30:54;;;;;;;8.57;2.22;;;33.50;44.90;;;;;;5002213;28;20030;-86
2022/06/15 13:33:40;;;;;;;3.30;2.47;;;34.10;44.00;;;;;;5017528;28;20114;-86
2022/06/15 13:36:12;;;;;;;7.18;2.80;;;33.70;48.10;;;;;;5036303;28;20743;-85
2022/06/15 13:38:44;;;;;;;5.75;2.80;;;33.90;48.00;;;;;;5001529;28;20044;-85
2022/06/15 13:41:31;;;;;;;4.80;2.67;;;34.10;45.80;;;;;;5018054;28;20044;-86